CYQA

Muskoka Airport

Airport
ICAO code
CYQA
Summary
ICAO Region
NAM
ICAO Territory
Location

Muskoka, Ontario, Canada,

Elevation
925 ft
Coordinates
44° 58' 7" N , 79° 18' 26" W
KCC
Metar
Observation
CYQA 032000Z AUTO 31006KT 270V340 9SM CLR 15/00 A3032 RMK SLP278
Station
Muskoka, Ont.
Date/Time
2022-10-03 20:00:00
Wind direction
310°
Wind speed
06 kts
Lowest cloud amount
n/a
Temperature
15°C
Dew point
0°C
Humidity
35%
Weather condition
n/a

Description

Regional airport in central Ontario Canada, primarily used by general aviation traffic.

Climatology

Humid continental climate (Köppen climate classification Dfa) - characterized by four seasons: cold, windy, snowy winters, mild springs, hot, humid summers, and crisp and relatively short autumns. Precipitation reaches its lowest in January and February and peaks in summer and latter half of spring.

Runways

Designator Length Width Surface Rops
9/27 664 30 GRS No/No
18/36 1829 46 ASP Yes/Yes

Airport map

Aerial View

SKYbrary Partners:

Safety knowledge contributed by: